Accueil
METAR-TAF:

METAR-TAF

Aéroports :

Aéroport international Mallam Aminu Kano

Kano, Nigeria

latitude: 12-03N, longitude: 008-32E, altitude: 476 m

Observation

Le bulletin a été fait il y a 32 minutes, à 03:00 UTC
Vent 2 kt de direction variable
Température 19°C
Humidité 37%
Pression 1014 hPa
Visibilité: 8000 m

METAR: DNKN 040300Z VRB02KT 8000 NIL NSC 19/04 Q1014 NOSIG

Heure: 04:32 (03:32 UTC)

Prévision

Le bulletin a été fait il y a 4 heures et 32 minutes, à 23:00 UTC
Prévision valable du 04 à 00 UTC au 05 à 06 UTC
Vent 5 kt de nord-est
Visibilité: 7000 m
Temporairement
du 04 à 07 UTC au 04 à 11 UTC
Visibilité: 1500 m
brume sèche

TAF: DNKN 032300Z 0400/0506 04005KT 7000 NSC TEMPO 0407/0411 1500 HZ

Observations et prévisions météorologiques de plus de 4000 aéroports (messages METAR et TAF).

Les stations disponibles sont représentées par des disques jaunes et rouges sur la carte.

Passer la souris dessus pour voir le nom de la station.

Cliquer dessus pour voir les observations et prévisions météorologiques.

Pour changer de carte: cliquez sur les boutons verts avec une croix noire pour zoomer, sur le bouton vert avec un tiret pour effectuer un zoom arrière, ou sur les flèches vertes pour les cartes adjacentes.


METAR-TAF: